Seyah Cheshmeh, Iran

32°F / 0°C
Clear
Windchill: 24°F / -4°C
Humidity: 35%
Dew Point: 7°F / -14°C
Wind: NNW at 9 mph / 15 km/h
Pressure: 30.09 in / 1019 hPa (Rising)
Visibility: -
Clouds:
Yesterday's Maximum: 43°F / 6°C
Yesterday's Minimum: 27°F / -3°C approx.
Yesterday's Heating Degree Days: 30 approx.
Sunrise:7:18 AM +0330
Sunset:6:14 PM +0330
Moon Rise:7:16 PM +0330
Moon Set:7:56 AM +0330
Moon Phase Full Moon
NOAA Weather Radio
No local feed.
METAR OITU 191950Z 34008KT CAVOK 00/M14 Q1019
As of: 11:20 PM +0330 on February 19, 2019
Observed at: Maku, Iran

View Station's History

Local Satellite

Current Satellite Forecast
Region Default Local
No Yes

View Full Screen WunderMap

Forecast

Current Satellite Forecast
Tuesday
. High: 41° F. / 5° C.

Features

Weather Apps

WunderRadio

Weather Underground Apps
Check out our wide variety of mobile and setup applications.

Weather Underground Applications

Top of Page

© Copyright 2019
The Weather Company, LLC